Time;durP1;ratioP1;P1;durP2;ratioP2;P2;SDS_P1;SDS_P2;PMS_P1;PMS_P2;Temp;Humidity;BMP_temperature;BMP_pressure;BME280_temperature;BME280_humidity;BME280_pressure;Samples;Min_cycle;Max_cycle;Signal;HPM_P1;HPM_P2
2023/07/12 00:39:35;;;;;;;11.63;7.03;;;22.90;99.90;;;;;;4837938;29;20086;-81
2023/07/12 00:47:45;;;;;;;11.15;6.82;;;22.90;99.90;;;;;;5126083;23;20072;-82
2023/07/12 01:07:34;;;;;;;8.35;5.72;;;22.80;99.90;;;;;;5167133;23;20042;-81
2023/07/12 01:10:57;;;;;;;9.75;5.72;;;22.80;99.90;;;;;;4853431;29;20128;-85
2023/07/12 01:26:56;;;;;;;10.85;6.68;;;22.60;99.90;;;;;;4826714;23;20057;-85
2023/07/12 01:49:31;;;;;;;11.55;6.60;;;22.60;99.90;;;;;;5178782;24;20516;-83
2023/07/12 01:56:54;;;;;;;10.43;6.13;;;22.60;99.90;;;;;;4830618;29;20092;-80
2023/07/12 02:10:58;;;;;;;10.93;6.13;;;22.10;99.90;;;;;;4865938;29;20490;-86
2023/07/12 02:13:27;;;;;;;13.82;7.22;;;22.10;99.90;;;;;;4899300;23;20054;-84
2023/07/12 02:16:10;;;;;;;10.23;5.93;;;22.10;99.90;;;;;;4862143;29;20045;-86
2023/07/12 02:18:46;;;;;;;11.13;6.78;;;22.10;99.90;;;;;;4834086;29;20046;-86
2023/07/12 02:22:08;;;;;;;13.07;6.90;;;21.80;99.90;;;;;;4865507;29;20072;-84
2023/07/12 02:32:54;;;;;;;11.77;6.75;;;21.70;99.90;;;;;;4838566;29;20058;-85
2023/07/12 02:35:29;;;;;;;9.68;7.30;;;21.60;99.90;;;;;;4864565;29;20076;-86
2023/07/12 02:42:18;;;;;;;9.63;6.60;;;21.50;99.90;;;;;;4785160;29;20065;-87
2023/07/12 02:44:45;;;;;;;13.18;6.80;;;21.30;99.90;;;;;;4767268;30;20100;-88
2023/07/12 02:48:03;;;;;;;11.00;7.28;;;21.40;99.90;;;;;;4808012;29;20088;-88
2023/07/12 02:50:58;;;;;;;10.57;7.05;;;21.30;99.90;;;;;;4774796;30;20027;-87
2023/07/12 02:54:11;;;;;;;15.82;6.68;;;21.30;99.90;;;;;;4786871;29;20086;-85
2023/07/12 02:56:40;;;;;;;10.50;6.85;;;21.60;99.90;;;;;;4791577;29;20080;-86
2023/07/12 02:59:07;;;;;;;10.80;6.72;;;21.70;99.90;;;;;;4789309;29;20087;-89
2023/07/12 03:01:55;;;;;;;11.98;6.78;;;21.80;99.90;;;;;;5282312;23;20057;-86
2023/07/12 03:04:39;;;;;;;11.80;6.85;;;21.70;99.90;;;;;;4876903;29;20078;-87
2023/07/12 03:07:07;;;;;;;11.25;6.57;;;21.70;99.90;;;;;;4867172;29;20409;-82
2023/07/12 03:09:35;;;;;;;13.55;7.57;;;21.70;99.90;;;;;;4851238;29;20417;-83
2023/07/12 03:12:23;;;;;;;14.13;7.10;;;21.60;99.90;;;;;;4865277;29;20056;-84
2023/07/12 03:17:47;;;;;;;10.02;7.03;;;21.20;99.90;;;;;;5087725;24;20053;-84
2023/07/12 03:20:27;;;;;;;11.80;6.50;;;21.20;99.90;;;;;;4866543;29;20070;-87
2023/07/12 03:23:22;;;;;;;10.90;6.57;;;21.30;99.90;;;;;;4866912;29;20041;-87
2023/07/12 03:25:49;;;;;;;11.70;7.68;;;21.20;99.90;;;;;;4876497;29;20041;-86
2023/07/12 03:28:23;;;;;;;10.70;7.35;;;21.30;99.90;;;;;;4865948;29;20091;-86
2023/07/12 03:31:15;;;;;;;10.15;6.70;;;21.40;99.90;;;;;;4870607;29;20045;-82
2023/07/12 03:33:59;;;;;;;12.23;6.75;;;21.30;99.90;;;;;;4848912;29;20147;-85
2023/07/12 03:36:29;;;;;;;12.38;7.38;;;21.40;99.90;;;;;;4868575;29;20458;-80
2023/07/12 03:39:00;;;;;;;10.20;6.45;;;21.50;99.90;;;;;;4873874;29;20041;-87
2023/07/12 03:41:28;;;;;;;11.73;6.95;;;21.50;99.90;;;;;;4864966;29;20038;-86
2023/07/12 03:43:55;;;;;;;13.07;7.03;;;21.30;99.90;;;;;;4877712;29;20069;-85
2023/07/12 03:46:36;;;;;;;11.73;8.07;;;21.20;99.90;;;;;;4867410;29;20045;-88
2023/07/12 03:49:03;;;;;;;12.80;7.32;;;21.30;99.90;;;;;;4858172;29;20042;-87
2023/07/12 03:54:42;;;;;;;11.82;7.38;;;21.40;99.90;;;;;;5881736;24;20080;-88
2023/07/12 03:57:10;;;;;;;9.32;6.78;;;21.40;99.90;;;;;;4867970;29;20459;-88
2023/07/12 03:59:42;;;;;;;12.45;6.65;;;21.50;99.90;;;;;;4859928;29;20498;-89
2023/07/12 04:02:09;;;;;;;10.52;7.00;;;21.50;99.90;;;;;;4865765;29;20038;-86
2023/07/12 04:04:37;;;;;;;11.52;6.85;;;21.40;99.90;;;;;;4872485;29;20060;-88
2023/07/12 04:07:04;;;;;;;11.57;7.38;;;21.50;99.90;;;;;;4851297;29;20042;-87
2023/07/12 04:09:41;;;;;;;10.93;6.75;;;21.60;99.90;;;;;;4869013;29;20140;-88
2023/07/12 04:12:09;;;;;;;12.27;7.22;;;21.60;99.90;;;;;;4870996;29;20096;-86
2023/07/12 04:21:04;;;;;;;11.02;7.25;;;21.50;99.90;;;;;;4863412;29;20045;-85
2023/07/12 04:30:35;;;;;;;13.07;7.00;;;22.00;99.90;;;;;;4898657;24;20068;-85
2023/07/12 04:34:07;;;;;;;13.63;7.35;;;21.90;99.90;;;;;;4887199;29;20049;-87
2023/07/12 04:36:35;;;;;;;12.80;7.28;;;21.80;99.90;;;;;;4899053;29;20049;-84
2023/07/12 04:39:03;;;;;;;10.60;6.60;;;21.90;99.90;;;;;;4888759;29;20064;-86
2023/07/12 04:41:44;;;;;;;12.70;7.15;;;22.00;99.90;;;;;;4888102;29;20044;-80
2023/07/12 04:44:13;;;;;;;15.77;7.18;;;22.00;99.90;;;;;;4886657;29;20068;-84
2023/07/12 04:46:45;;;;;;;13.85;7.30;;;22.00;99.90;;;;;;4894324;29;20072;-88
2023/07/12 04:49:16;;;;;;;37.47;25.48;;;22.00;99.90;;;;;;4860799;29;20560;-84
2023/07/12 04:51:51;;;;;;;121.30;83.45;;;22.20;99.90;;;;;;4888282;29;20045;-84
2023/07/12 04:54:20;;;;;;;68.43;50.15;;;22.30;99.90;;;;;;4886504;29;20045;-80
2023/07/12 04:56:48;;;;;;;21.73;13.40;;;22.40;99.90;;;;;;4886592;29;20413;-82
2023/07/12 04:59:21;;;;;;;148.75;91.50;;;22.40;99.90;;;;;;4886200;29;20056;-84
2023/07/12 05:01:48;;;;;;;72.47;52.38;;;22.50;99.90;;;;;;4886637;29;20045;-81
2023/07/12 05:04:16;;;;;;;38.55;26.20;;;22.60;99.90;;;;;;4883796;29;20129;-81
2023/07/12 05:16:18;;;;;;;20.88;13.77;;;22.70;99.90;;;;;;4996190;24;20037;-81
2023/07/12 05:23:51;;;;;;;16.80;10.35;;;22.60;99.90;;;;;;5265063;23;20156;-83
2023/07/12 05:26:42;;;;;;;15.80;9.43;;;22.60;99.90;;;;;;4879266;29;20056;-82
2023/07/12 05:29:12;;;;;;;16.55;10.88;;;22.70;99.90;;;;;;4875755;29;20469;-86
2023/07/12 05:31:40;;;;;;;15.80;10.13;;;22.90;99.90;;;;;;4887852;29;20133;-84
2023/07/12 05:34:11;;;;;;;28.08;19.55;;;23.00;99.90;;;;;;4883604;29;20080;-81
2023/07/12 05:36:53;;;;;;;63.95;47.33;;;23.20;99.90;;;;;;4852903;29;20072;-78
2023/07/12 05:39:22;;;;;;;21.42;13.18;;;23.10;99.90;;;;;;4887771;29;20052;-87
2023/07/12 05:41:52;;;;;;;15.80;10.32;;;23.00;99.90;;;;;;4878400;29;20056;-85
2023/07/12 05:44:33;;;;;;;13.60;8.90;;;23.10;99.90;;;;;;4874988;29;20090;-82
2023/07/12 05:49:42;;;;;;;14.40;9.15;;;23.00;99.90;;;;;;4996636;23;20057;-86
2023/07/12 05:52:13;;;;;;;15.98;8.95;;;23.00;99.90;;;;;;4871835;29;20049;-84
2023/07/12 05:54:41;;;;;;;34.13;16.08;;;23.10;99.90;;;;;;4882189;29;20045;-82
2023/07/12 06:09:25;;;;;;;18.23;10.80;;;23.60;99.90;;;;;;4887074;29;20362;-84
2023/07/12 06:12:10;;;;;;;13.98;10.38;;;23.50;99.90;;;;;;5025588;24;20801;31
2023/07/12 06:15:31;;;;;;;;;;;23.60;99.90;;;;;;5242585;23;20076;-84
2023/07/12 06:26:58;;;;;;;16.80;9.32;;;24.00;99.90;;;;;;4778318;30;20302;-84
2023/07/12 06:30:39;;;;;;;16.33;10.05;;;24.00;99.90;;;;;;4835574;24;20443;-85
2023/07/12 06:33:44;;;;;;;12.07;8.60;;;24.10;99.90;;;;;;4826568;29;20075;-83
2023/07/12 06:37:00;;;;;;;13.20;8.40;;;24.00;99.90;;;;;;4855558;29;20058;-83
2023/07/12 06:40:07;;;;;;;12.50;8.73;;;24.20;99.90;;;;;;4860254;29;20057;-83
2023/07/12 06:42:55;;;;;;;13.52;9.30;;;24.20;99.90;;;;;;5244321;23;20058;-85
2023/07/12 06:45:24;;;;;;;14.07;8.55;;;24.30;99.90;;;;;;4872400;29;20414;-84
2023/07/12 06:51:32;;;;;;;;;;;24.30;99.90;;;;;;4878276;29;20124;-85
2023/07/12 06:58:16;;;;;;;;;;;24.50;99.90;;;;;;4871563;29;20029;-85
2023/07/12 07:04:27;;;;;;;15.07;8.65;;;24.50;99.90;;;;;;4625124;27;20033;-82
2023/07/12 07:10:08;;;;;;;14.40;9.07;;;24.60;99.90;;;;;;5140728;24;20145;-85
2023/07/12 07:13:15;;;;;;;14.43;8.32;;;24.60;99.90;;;;;;4869261;29;20041;-84
2023/07/12 07:19:07;;;;;;;14.30;8.63;;;24.80;99.90;;;;;;4853820;29;20129;-84
2023/07/12 07:22:08;;;;;;;16.10;9.00;;;24.90;99.90;;;;;;4829999;29;20110;-84
2023/07/12 07:24:49;;;;;;;14.07;8.90;;;25.00;99.90;;;;;;4857843;29;20029;-86
2023/07/12 07:34:56;;;;;;;13.48;9.10;;;25.10;99.90;;;;;;4856890;29;20407;-85
2023/07/12 07:37:37;;;;;;;18.45;8.82;;;25.20;99.90;;;;;;4850024;29;20053;-86
2023/07/12 07:40:09;;;;;;;13.32;8.85;;;25.20;99.90;;;;;;4986671;24;21092;-84
2023/07/12 07:51:01;;;;;;;14.13;8.70;;;25.40;99.90;;;;;;4748344;30;20452;-84
2023/07/12 07:57:16;;;;;;;13.02;9.13;;;25.60;99.90;;;;;;4857682;27;20069;-82
2023/07/12 07:59:58;;;;;;;18.05;8.80;;;25.70;99.90;;;;;;4876880;29;20041;-84
2023/07/12 08:03:05;;;;;;;13.60;9.00;;;25.70;99.90;;;;;;4870427;29;20079;-83
2023/07/12 08:12:23;;;;;;;14.85;8.52;;;25.90;99.90;;;;;;5216027;23;20045;-85
2023/07/12 08:15:58;;;;;;;15.93;8.57;;;26.00;99.90;;;;;;5483757;23;20099;-84
2023/07/12 08:28:18;;;;;;;12.82;9.23;;;26.20;99.90;;;;;;5169548;23;20053;-85
2023/07/12 08:35:39;;;;;;;14.15;9.45;;;26.30;99.90;;;;;;4882411;29;20136;-84
2023/07/12 08:42:54;;;;;;;10.40;8.38;;;26.50;99.90;;;;;;4866870;29;20064;-84
2023/07/12 08:49:31;;;;;;;15.07;8.77;;;26.50;99.90;;;;;;5382028;23;20039;-84
2023/07/12 09:06:21;;;;;;;12.77;9.60;;;26.80;99.60;;;;;;4892537;29;20108;-85
2023/07/12 09:09:09;;;;;;;12.95;8.63;;;27.00;99.90;;;;;;4874905;29;20132;-85
2023/07/12 09:12:37;;;;;;;13.02;8.68;;;27.20;99.90;;;;;;4877186;23;20064;-83
2023/07/12 09:15:48;;;;;;;15.30;8.73;;;27.20;99.40;;;;;;5010634;23;20064;-85
2023/07/12 09:18:37;;;;;;;14.20;9.98;;;27.10;99.20;;;;;;4872628;29;20057;-81
2023/07/12 09:22:15;;;;;;;11.45;8.23;;;27.40;99.30;;;;;;4871927;29;20053;-84
2023/07/12 09:25:39;;;;;;;15.43;8.07;;;27.70;99.10;;;;;;5113777;23;20127;-83
2023/07/12 09:35:29;;;;;;;11.57;6.97;;;28.10;96.70;;;;;;5705366;23;20490;-84
2023/07/12 09:41:29;;;;;;;10.63;7.18;;;28.30;96.20;;;;;;4873636;29;20046;-84
2023/07/12 09:44:01;;;;;;;10.57;7.82;;;28.40;95.80;;;;;;4871059;29;20073;-84
2023/07/12 09:46:41;;;;;;;20.90;8.20;;;28.50;95.50;;;;;;4862111;29;20061;-84
2023/07/12 09:49:39;;;;;;;12.07;7.28;;;28.50;95.10;;;;;;4852208;29;20090;-85
2023/07/12 09:57:15;;;;;;;10.55;7.78;;;28.50;94.20;;;;;;4877179;29;20493;-83
2023/07/12 11:09:45;;;;;;;9.05;6.03;;;30.60;83.60;;;;;;4900599;29;20133;-84
2023/07/12 11:13:29;;;;;;;8.45;5.55;;;30.60;83.40;;;;;;4949114;29;20042;-85
2023/07/12 11:24:13;;;;;;;9.18;5.10;;;30.40;83.10;;;;;;5344080;23;20051;-85
2023/07/12 11:27:55;;;;;;;8.40;5.55;;;30.70;82.10;;;;;;4858944;29;20092;-83
2023/07/12 11:30:41;;;;;;;9.00;5.82;;;30.80;81.00;;;;;;4922677;23;20080;-87
2023/07/12 11:33:56;;;;;;;9.35;5.38;;;30.40;81.50;;;;;;4903641;29;20040;-85
2023/07/12 11:36:43;;;;;;;10.02;5.80;;;30.80;81.50;;;;;;5000648;23;20036;-81
2023/07/12 11:39:51;;;;;;;8.02;5.30;;;30.70;82.20;;;;;;4856944;29;20050;-82
2023/07/12 11:43:32;;;;;;;10.07;5.45;;;30.80;81.50;;;;;;4840816;29;20065;-83
2023/07/12 11:59:20;;;;;;;7.55;5.15;;;31.90;74.90;;;;;;5041025;23;20083;-85
2023/07/12 12:15:32;;;;;;;8.30;4.70;;;32.00;71.90;;;;;;4896806;29;20072;-83
2023/07/12 12:18:15;;;;;;;9.10;4.90;;;32.50;70.50;;;;;;4898670;29;20045;-85
2023/07/12 12:28:51;;;;;;;9.73;4.80;;;32.30;70.30;;;;;;4840441;29;20389;-84
2023/07/12 12:35:38;;;;;;;8.20;4.72;;;32.50;69.20;;;;;;4880165;29;20053;-82
2023/07/12 12:54:22;;;;;;;37.33;10.80;;;32.90;68.00;;;;;;4919613;29;20579;-81
2023/07/12 13:00:29;;;;;;;11.00;6.78;;;32.80;69.30;;;;;;4915655;23;20256;-81
2023/07/12 13:06:48;;;;;;;17.75;8.70;;;32.90;69.60;;;;;;5084749;23;20079;-81
2023/07/12 13:09:55;;;;;;;10.23;5.82;;;32.60;69.30;;;;;;4931978;29;20039;-81
2023/07/12 13:12:28;;;;;;;13.98;6.25;;;32.50;71.00;;;;;;4912089;29;20115;-79
2023/07/12 13:14:58;;;;;;;11.10;5.63;;;32.50;69.60;;;;;;4928139;29;20043;-81
2023/07/12 13:17:35;;;;;;;11.80;5.22;;;32.60;69.10;;;;;;4926990;29;20070;-81
2023/07/12 13:24:00;;;;;;;10.35;5.72;;;33.10;67.40;;;;;;5055810;23;20131;-80
2023/07/12 13:30:20;;;;;;;10.98;5.55;;;32.80;68.60;;;;;;4932766;29;20039;-83
2023/07/12 13:33:41;;;;;;;10.80;5.43;;;33.00;68.80;;;;;;4905645;29;20052;-82
2023/07/12 13:51:23;;;;;;;8.48;4.50;;;33.60;68.20;;;;;;5100966;23;20067;-81
2023/07/12 13:54:06;;;;;;;8.95;4.93;;;33.60;68.10;;;;;;4875622;29;20049;-84
2023/07/12 13:56:48;;;;;;;6.72;4.75;;;33.70;68.40;;;;;;4876967;29;20120;-81
2023/07/12 13:59:25;;;;;;;9.60;5.15;;;33.50;68.90;;;;;;4859089;29;20084;-82
2023/07/12 14:06:18;;;;;;;8.40;4.55;;;33.60;68.60;;;;;;4897765;29;20017;-83
2023/07/12 14:10:11;;;;;;;;;;;;;;;;;;;;;
2023/07/12 14:19:05;;;;;;;8.13;4.87;;;33.40;68.30;;;;;;5254483;23;20056;-83
2023/07/12 14:21:37;;;;;;;9.02;4.63;;;33.80;68.00;;;;;;5294650;23;20015;-82
2023/07/12 14:24:16;;;;;;;8.07;4.53;;;33.60;66.90;;;;;;5081543;23;20028;-84
2023/07/12 14:26:47;;;;;;;;;;;33.50;67.80;;;;;;5252731;23;20056;-84
2023/07/12 14:32:32;;;;;;;8.18;4.50;;;33.70;66.80;;;;;;5225299;23;20067;-82
2023/07/12 14:39:17;;;;;;;6.77;4.13;;;33.80;65.60;;;;;;4910480;29;20036;-82
2023/07/12 14:42:18;;;;;;;;;;;33.60;65.30;;;;;;4891390;29;20275;-82
2023/07/12 14:44:47;;;;;;;9.63;4.70;;;33.70;65.00;;;;;;5332678;23;19919;-81
2023/07/12 14:48:03;;;;;;;10.48;4.80;;;33.60;64.00;;;;;;4886476;29;20074;-82
2023/07/12 14:51:43;;;;;;;6.68;4.57;;;33.50;64.90;;;;;;4896226;29;20067;-81
2023/07/12 14:54:25;;;;;;;8.00;4.70;;;33.80;64.30;;;;;;4847710;29;20077;-83
2023/07/12 14:56:53;;;;;;;8.63;3.80;;;33.80;65.00;;;;;;4906578;29;20044;-84
2023/07/12 14:59:42;;;;;;;7.80;4.55;;;33.70;64.60;;;;;;4916953;29;20078;-82
2023/07/12 15:02:33;;;;;;;7.53;4.55;;;33.80;64.90;;;;;;4921754;29;20059;-87
2023/07/12 15:08:35;;;;;;;14.40;8.98;;;33.90;63.20;;;;;;4873264;29;20349;-79
2023/07/12 15:11:51;;;;;;;41.58;30.75;;;33.90;65.00;;;;;;4847724;29;20187;-75
2023/07/12 15:19:17;;;;;;;70.50;53.67;;;34.00;63.30;;;;;;4777781;30;20165;-90
2023/07/12 15:30:56;;;;;;;12.50;8.77;;;33.80;65.30;;;;;;5041494;23;20063;-84
2023/07/12 15:35:06;;;;;;;;;;;;;;;;;;;;;
2023/07/12 15:38:47;;;;;;;9.15;6.15;;;33.80;65.40;;;;;;5198438;23;20112;-80
2023/07/12 15:48:59;;;;;;;11.70;4.68;;;33.90;65.10;;;;;;4910571;29;20056;-76
2023/07/12 16:01:51;;;;;;;7.30;4.47;;;35.20;63.80;;;;;;5776666;23;20131;-87
2023/07/12 16:05:04;;;;;;;8.70;4.78;;;35.30;63.30;;;;;;4931300;29;20054;-87
2023/07/12 16:14:22;;;;;;;20.25;15.95;;;35.00;61.50;;;;;;4982556;23;20061;-83
2023/07/12 16:18:44;;;;;;;;;;;;;;;;;;;;;
2023/07/12 16:21:36;;;;;;;6.93;4.25;;;38.70;58.60;;;;;;4914682;23;20114;-83
2023/07/12 16:24:17;;;;;;;8.27;4.47;;;39.70;57.20;;;;;;4888532;29;20128;-81
2023/07/12 16:26:47;;;;;;;36.22;29.88;;;39.30;56.00;;;;;;4917013;29;20039;-86
2023/07/12 16:29:17;;;;;;;68.10;57.15;;;38.90;54.30;;;;;;4897216;29;20108;-80
2023/07/12 16:32:19;;;;;;;63.67;50.50;;;39.00;55.50;;;;;;4904447;29;20041;-76
2023/07/12 16:34:58;;;;;;;98.32;82.53;;;38.90;54.60;;;;;;4919451;29;20059;-83
2023/07/12 16:38:41;;;;;;;14.75;12.68;;;38.90;55.50;;;;;;4894638;29;20052;-83
2023/07/12 16:41:19;;;;;;;12.93;8.82;;;39.20;55.10;;;;;;4902373;29;20044;-85
2023/07/12 16:47:38;;;;;;;7.30;5.20;;;38.90;55.00;;;;;;4930905;29;20048;-84
2023/07/12 16:50:40;;;;;;;8.30;3.97;;;38.40;55.30;;;;;;4870888;29;20470;-82
2023/07/12 16:54:33;;;;;;;6.90;3.92;;;37.50;57.50;;;;;;4869522;29;20038;-82
2023/07/12 16:59:51;;;;;;;7.45;4.22;;;34.70;62.60;;;;;;5078060;23;20048;-82
2023/07/12 17:05:48;;;;;;;8.23;4.32;;;34.00;63.90;;;;;;4925909;29;20040;-81
2023/07/12 17:08:37;;;;;;;6.85;4.20;;;33.90;65.50;;;;;;5185733;23;20120;-81
2023/07/12 17:11:10;;;;;;;6.75;4.18;;;33.70;66.00;;;;;;4874414;29;20093;-80
2023/07/12 17:13:51;;;;;;;7.65;4.50;;;33.60;66.20;;;;;;4867528;29;20051;-83
2023/07/12 17:16:39;;;;;;;7.65;4.18;;;33.40;66.70;;;;;;4900629;29;20032;-79
2023/07/12 17:19:57;;;;;;;;;;;33.30;66.80;;;;;;5142351;23;20055;-80
2023/07/12 17:39:06;;;;;;;8.57;5.30;;;32.60;71.70;;;;;;5907418;23;20091;-80
2023/07/12 17:52:21;;;;;;;9.00;4.57;;;32.20;71.80;;;;;;4880178;29;20397;-83
2023/07/12 17:55:24;;;;;;;7.57;4.30;;;32.10;71.50;;;;;;4860981;29;20086;-83
2023/07/12 18:04:31;;;;;;;10.38;5.35;;;31.80;70.50;;;;;;1755092;23;20044;-81
2023/07/12 18:07:41;;;;;;;23.48;15.63;;;31.70;71.70;;;;;;4907649;29;20108;-88
2023/07/12 18:10:09;;;;;;;42.05;29.23;;;31.60;66.10;;;;;;4921585;29;20045;-81
2023/07/12 18:12:37;;;;;;;14.80;10.30;;;30.90;68.50;;;;;;4881853;29;20407;-80
2023/07/12 18:15:22;;;;;;;14.25;9.57;;;30.50;67.50;;;;;;4893937;29;20036;-85
2023/07/12 18:17:52;;;;;;;25.05;17.08;;;30.30;73.10;;;;;;4925351;29;20127;-83
2023/07/12 18:20:22;;;;;;;13.45;8.20;;;30.10;73.20;;;;;;4914349;29;20471;-82
2023/07/12 18:22:56;;;;;;;12.55;8.00;;;30.30;72.30;;;;;;4902903;29;20107;-87
2023/07/12 18:25:24;;;;;;;13.52;6.25;;;30.20;68.30;;;;;;4914679;29;20453;-81
2023/07/12 18:27:51;;;;;;;10.45;6.32;;;30.00;73.30;;;;;;4907230;29;20049;-83
2023/07/12 18:30:20;;;;;;;10.00;5.65;;;29.80;69.30;;;;;;4908584;29;20043;-87
2023/07/12 18:32:47;;;;;;;13.35;5.90;;;29.80;69.00;;;;;;4898057;29;20052;-79
2023/07/12 18:35:25;;;;;;;12.32;6.10;;;30.00;71.90;;;;;;4908506;29;20082;-79
2023/07/12 18:37:55;;;;;;;16.52;6.03;;;29.70;73.40;;;;;;4907621;29;20055;-81
2023/07/12 18:40:24;;;;;;;82.35;56.45;;;29.70;74.90;;;;;;4907429;29;20041;-81
2023/07/12 18:42:53;;;;;;;16.35;11.13;;;29.90;75.50;;;;;;4929590;29;20100;-81
2023/07/12 18:45:26;;;;;;;75.85;49.83;;;29.80;76.70;;;;;;4914701;29;20041;-81
2023/07/12 18:47:54;;;;;;;16.23;10.07;;;29.90;77.50;;;;;;4925117;29;20040;-80
2023/07/12 18:50:23;;;;;;;12.23;6.75;;;29.90;77.00;;;;;;4921589;29;20452;-81
2023/07/12 18:52:51;;;;;;;14.88;6.60;;;29.90;77.30;;;;;;4900786;29;20057;-82
2023/07/12 18:55:22;;;;;;;11.32;6.13;;;29.90;77.00;;;;;;4896009;29;20077;-81
2023/07/12 18:57:52;;;;;;;28.17;18.65;;;29.70;77.80;;;;;;4915219;29;20088;-78
2023/07/12 19:00:23;;;;;;;19.73;12.07;;;29.60;78.80;;;;;;4913752;29;20479;-79
2023/07/12 19:02:52;;;;;;;29.02;19.30;;;29.60;77.60;;;;;;4882754;29;20044;-80
2023/07/12 19:05:28;;;;;;;24.58;15.05;;;29.30;76.90;;;;;;4909818;29;20062;-81
2023/07/12 19:07:58;;;;;;;16.45;12.10;;;29.10;76.30;;;;;;4900959;29;20056;-80
2023/07/12 19:10:30;;;;;;;15.75;9.02;;;29.00;75.50;;;;;;4894558;29;20055;-84
2023/07/12 19:13:11;;;;;;;11.15;6.80;;;28.80;76.60;;;;;;4901831;29;20119;-83
2023/07/12 19:15:54;;;;;;;13.07;6.60;;;28.90;79.80;;;;;;4888757;29;20048;-86
2023/07/12 19:18:32;;;;;;;10.27;6.60;;;29.00;81.00;;;;;;4908306;29;20072;-86
2023/07/12 19:22:13;;;;;;;10.93;6.75;;;29.10;81.00;;;;;;4895260;29;20049;-84
2023/07/12 19:25:02;;;;;;;17.30;8.13;;;29.10;81.80;;;;;;4914031;29;20040;-81
2023/07/12 19:27:32;;;;;;;18.92;8.30;;;29.00;76.30;;;;;;4908466;29;20123;-79
2023/07/12 19:30:17;;;;;;;13.35;6.82;;;28.70;79.80;;;;;;4892574;29;20071;-85
2023/07/12 19:32:44;;;;;;;14.25;7.18;;;28.90;85.20;;;;;;4916548;29;20047;-80
2023/07/12 19:35:19;;;;;;;12.52;6.88;;;29.00;84.90;;;;;;4930435;29;20036;-82
2023/07/12 19:38:03;;;;;;;13.52;7.05;;;29.10;84.60;;;;;;4914555;29;20059;-81
2023/07/12 19:40:51;;;;;;;17.98;8.63;;;28.90;85.00;;;;;;4903013;29;20040;-82
2023/07/12 19:43:24;;;;;;;14.70;6.78;;;28.70;85.10;;;;;;4905116;29;20070;-82
2023/07/12 19:58:44;;;;;;;13.02;6.30;;;28.50;85.70;;;;;;4878049;29;20049;-82
2023/07/12 20:08:44;;;;;;;12.30;7.88;;;28.10;87.90;;;;;;5556195;23;20058;-82
2023/07/12 20:12:08;;;;;;;11.57;6.55;;;27.90;88.80;;;;;;4947422;29;20049;-82
2023/07/12 20:15:20;;;;;;;11.30;6.78;;;28.10;88.30;;;;;;4938898;29;20024;-84
2023/07/12 20:18:41;;;;;;;12.10;6.72;;;28.20;88.20;;;;;;4917284;29;20051;-83
2023/07/12 20:21:51;;;;;;;11.50;7.35;;;28.20;87.50;;;;;;4920686;29;20034;-83
2023/07/12 20:24:43;;;;;;;10.05;6.53;;;28.20;87.20;;;;;;4906276;29;20115;-84
2023/07/12 20:28:08;;;;;;;18.52;10.52;;;27.90;87.90;;;;;;4942313;29;20046;-86
2023/07/12 20:30:52;;;;;;;13.57;7.40;;;27.60;88.60;;;;;;4898740;29;20112;-81
2023/07/12 20:34:23;;;;;;;13.88;7.22;;;27.50;89.10;;;;;;4918901;29;20525;-87
2023/07/12 20:49:38;;;;;;;8.73;6.45;;;27.50;83.60;;;;;;879927;27;20385;-88
2023/07/12 20:57:17;;;;;;;11.07;6.00;;;27.60;83.10;;;;;;4884444;29;20041;-86
2023/07/12 21:09:24;;;;;;;10.98;6.38;;;27.20;84.40;;;;;;4827083;29;20035;-81
2023/07/12 21:12:21;;;;;;;16.23;8.50;;;27.00;87.50;;;;;;4871553;29;20097;-84
2023/07/12 21:19:46;;;;;;;20.40;13.30;;;27.10;82.70;;;;;;4870421;29;20049;-88
2023/07/12 21:26:41;;;;;;;26.55;18.45;;;27.10;81.40;;;;;;5165621;23;20029;-86
2023/07/12 21:30:29;;;;;;;44.63;31.05;;;26.90;80.70;;;;;;4896705;29;20029;-87
2023/07/12 21:33:34;;;;;;;147.85;108.93;;;26.90;83.10;;;;;;4871145;29;20085;-89
2023/07/12 21:36:30;;;;;;;40.10;33.47;;;26.90;79.30;;;;;;4891091;29;20021;-87
2023/07/12 21:40:05;;;;;;;20.40;14.45;;;26.80;80.80;;;;;;4864569;29;20042;-88
2023/07/12 21:43:57;;;;;;;16.95;10.93;;;26.70;85.00;;;;;;4870690;29;20049;-82
2023/07/12 21:47:14;;;;;;;9.83;5.83;;;26.80;84.40;;;;;;4888677;29;20077;-83
2023/07/12 21:50:46;;;;;;;11.73;6.18;;;26.80;85.60;;;;;;4913068;29;20044;-82
2023/07/12 22:03:14;;;;;;;13.00;7.28;;;26.80;88.00;;;;;;5714882;23;20109;-83
2023/07/12 22:23:43;;;;;;;12.40;7.07;;;26.40;89.10;;;;;;1199518;27;20037;-84
2023/07/12 22:27:08;;;;;;;18.60;10.18;;;26.30;90.50;;;;;;4772803;30;20055;-85
2023/07/12 22:35:15;;;;;;;15.05;9.35;;;26.20;92.80;;;;;;4816133;29;20058;-88
2023/07/12 22:47:44;;;;;;;15.60;8.27;;;25.90;93.40;;;;;;5153012;23;20029;-85
2023/07/12 22:53:32;;;;;;;18.23;8.80;;;25.80;93.70;;;;;;4223561;27;20060;-81
2023/07/12 22:56:03;;;;;;;12.23;7.63;;;25.90;93.60;;;;;;4917923;29;20111;-78
2023/07/12 22:58:31;;;;;;;16.67;7.88;;;26.00;93.60;;;;;;4924959;29;20050;-81
2023/07/12 23:01:19;;;;;;;13.57;7.40;;;25.90;94.20;;;;;;4901439;29;20048;-82
2023/07/12 23:04:20;;;;;;;16.42;8.20;;;25.80;94.50;;;;;;4913717;29;20068;-85
2023/07/12 23:07:01;;;;;;;14.73;8.45;;;25.70;94.90;;;;;;4897443;29;20091;-87
2023/07/12 23:09:29;;;;;;;16.05;8.07;;;25.70;95.20;;;;;;4924924;29;20099;-79
2023/07/12 23:11:57;;;;;;;13.75;8.10;;;25.70;95.40;;;;;;4915952;29;20103;-82
2023/07/12 23:14:28;;;;;;;41.67;28.48;;;25.70;95.40;;;;;;4878590;29;20054;-80
2023/07/12 23:16:56;;;;;;;20.00;11.38;;;25.80;95.80;;;;;;4909228;29;20107;-82
2023/07/12 23:19:23;;;;;;;16.20;10.32;;;25.80;95.80;;;;;;4923521;29;20028;-78
2023/07/12 23:21:50;;;;;;;15.95;9.48;;;25.70;96.50;;;;;;4907017;29;20090;-79
2023/07/12 23:24:18;;;;;;;13.32;8.57;;;25.70;96.50;;;;;;4923555;29;20064;-80
2023/07/12 23:26:45;;;;;;;14.93;8.68;;;25.70;96.60;;;;;;4923022;29;20040;-81
2023/07/12 23:29:14;;;;;;;15.93;7.60;;;25.60;96.90;;;;;;4918742;29;20379;-82
2023/07/12 23:31:41;;;;;;;18.83;7.88;;;25.50;97.20;;;;;;4887191;29;20048;-78
2023/07/12 23:34:08;;;;;;;42.10;23.35;;;25.30;97.60;;;;;;4907225;29;20075;-78
2023/07/12 23:36:37;;;;;;;26.92;14.20;;;25.30;98.00;;;;;;4889021;29;20064;-76
2023/07/12 23:39:06;;;;;;;254.63;176.40;;;25.30;97.80;;;;;;4905528;29;20036;-76
2023/07/12 23:41:34;;;;;;;51.45;42.90;;;25.20;98.20;;;;;;4887902;29;20067;-80
2023/07/12 23:44:04;;;;;;;24.60;15.45;;;25.20;98.20;;;;;;4907921;29;20093;-77
2023/07/12 23:46:31;;;;;;;18.90;9.85;;;25.10;98.70;;;;;;4893157;29;20040;-83
2023/07/12 23:48:59;;;;;;;16.25;9.95;;;25.10;98.60;;;;;;4889598;29;20063;-78
2023/07/12 23:51:27;;;;;;;16.17;9.32;;;25.00;98.70;;;;;;4890763;29;20182;-77
2023/07/12 23:53:55;;;;;;;13.80;7.93;;;25.00;98.30;;;;;;4907388;29;20464;-75
2023/07/12 23:56:23;;;;;;;11.88;7.38;;;25.00;98.40;;;;;;4919909;29;20040;-78
2023/07/12 23:58:51;;;;;;;13.35;7.05;;;25.00;98.40;;;;;;4889234;29;20044;-76
